createdAt,value
2023-02-04T00:00:34.578Z,5.94
2023-02-04T00:01:34.593Z,5.94
2023-02-04T00:02:34.625Z,5.94
2023-02-04T00:03:34.545Z,5.94
2023-02-04T00:04:34.537Z,5.97
2023-02-04T00:05:34.636Z,5.97
2023-02-04T00:06:34.508Z,5.94
2023-02-04T00:07:34.529Z,5.94
2023-02-04T00:08:34.488Z,5.94
2023-02-04T00:09:34.492Z,5.93
2023-02-04T00:10:34.504Z,5.90
2023-02-04T00:11:34.450Z,5.89
2023-02-04T00:12:34.493Z,5.86
2023-02-04T00:13:34.668Z,5.87
2023-02-04T00:14:34.434Z,5.87
2023-02-04T00:15:34.445Z,5.87
2023-02-04T00:16:34.397Z,5.89
2023-02-04T00:17:34.405Z,5.90
2023-02-04T00:18:34.377Z,5.90
2023-02-04T00:19:34.396Z,5.90
2023-02-04T00:20:34.360Z,5.90
2023-02-04T00:21:34.358Z,5.89
2023-02-04T00:22:34.343Z,5.89
2023-02-04T00:23:34.341Z,5.90
2023-02-04T00:24:34.320Z,5.91
2023-02-04T00:25:34.342Z,5.94
2023-02-04T00:26:34.319Z,5.93
2023-02-04T00:27:34.304Z,5.97
2023-02-04T00:28:34.278Z,5.93
2023-02-04T00:29:34.273Z,5.90
2023-02-04T00:30:34.257Z,5.91
2023-02-04T00:31:34.441Z,5.91
2023-02-04T00:32:34.263Z,5.90
2023-02-04T00:33:34.227Z,5.91
2023-02-04T00:34:34.210Z,5.91
2023-02-04T00:35:34.221Z,5.91
2023-02-04T00:36:34.202Z,5.91
2023-02-04T00:37:34.191Z,5.90
2023-02-04T00:38:34.202Z,5.91
2023-02-04T00:39:34.183Z,5.91
2023-02-04T00:40:34.157Z,5.90
2023-02-04T00:41:34.151Z,5.90
2023-02-04T00:42:34.135Z,5.91
2023-02-04T00:43:34.135Z,5.89
2023-02-04T00:44:34.134Z,5.90
2023-02-04T00:45:34.207Z,5.89
2023-02-04T00:46:34.102Z,5.89
2023-02-04T00:47:34.090Z,5.87
2023-02-04T00:48:34.086Z,5.87
2023-02-04T00:49:34.098Z,5.90
2023-02-04T00:50:34.051Z,5.89
2023-02-04T00:51:34.045Z,5.89
2023-02-04T00:52:34.036Z,5.89
2023-02-04T00:53:34.033Z,5.86
2023-02-04T00:54:34.120Z,5.86
2023-02-04T00:55:34.066Z,5.89
2023-02-04T00:56:33.990Z,5.86
2023-02-04T00:57:34.126Z,5.86
2023-02-04T00:58:33.979Z,5.89
2023-02-04T00:59:33.964Z,5.89
2023-02-04T01:00:34.157Z,5.89
2023-02-04T01:01:33.986Z,5.91
2023-02-04T01:02:33.993Z,5.90
2023-02-04T01:03:33.950Z,5.93
2023-02-04T01:04:33.921Z,5.93
2023-02-04T01:05:33.909Z,5.94
2023-02-04T01:06:33.892Z,5.97
2023-02-04T01:07:33.995Z,5.97
2023-02-04T01:08:33.875Z,5.97
2023-02-04T01:09:33.877Z,5.97
2023-02-04T01:10:33.924Z,5.97
2023-02-04T01:11:33.847Z,5.97
2023-02-04T01:12:33.900Z,5.94
2023-02-04T01:13:33.820Z,5.97
2023-02-04T01:14:33.905Z,5.94
2023-02-04T01:15:33.800Z,5.97
2023-02-04T01:16:33.886Z,5.91
2023-02-04T01:17:33.790Z,5.91
2023-02-04T01:18:33.792Z,5.93
2023-02-04T01:19:33.763Z,5.91
2023-02-04T01:20:33.748Z,5.90
2023-02-04T01:21:33.739Z,5.89
2023-02-04T01:22:33.731Z,5.87
2023-02-04T01:23:33.734Z,5.84
2023-02-04T01:24:33.735Z,5.84
2023-02-04T01:25:33.701Z,5.82
2023-02-04T01:26:33.688Z,5.82
2023-02-04T01:27:33.681Z,5.79
2023-02-04T01:28:33.674Z,5.80
2023-02-04T01:29:33.662Z,5.83
2023-02-04T01:30:33.913Z,5.83
2023-02-04T01:31:33.656Z,5.82
2023-02-04T01:32:33.627Z,5.80
2023-02-04T01:33:33.624Z,5.80
2023-02-04T01:34:33.631Z,5.82
2023-02-04T01:35:33.648Z,5.80
2023-02-04T01:36:33.585Z,5.79
2023-02-04T01:37:33.583Z,5.79
2023-02-04T01:38:33.566Z,5.75
2023-02-04T01:39:33.564Z,5.75
2023-02-04T01:40:33.694Z,5.73
2023-02-04T01:41:33.564Z,5.75
2023-02-04T01:42:33.523Z,5.73
2023-02-04T01:43:33.522Z,5.76
2023-02-04T01:44:33.512Z,5.72
2023-02-04T01:45:33.557Z,5.73
2023-02-04T01:46:33.487Z,5.75
2023-02-04T01:47:33.506Z,5.71
2023-02-04T01:48:33.462Z,5.69
2023-02-04T01:49:33.457Z,5.69
2023-02-04T01:50:33.745Z,5.68
2023-02-04T01:51:33.457Z,5.64
2023-02-04T01:52:33.411Z,5.65
2023-02-04T01:53:33.411Z,5.65
2023-02-04T01:54:33.398Z,5.68
2023-02-04T01:55:33.388Z,5.66
2023-02-04T01:56:33.376Z,5.64
2023-02-04T01:57:33.412Z,5.66
2023-02-04T01:58:33.358Z,5.64
2023-02-04T01:59:33.346Z,5.61
2023-02-04T02:00:33.742Z,5.59
2023-02-04T02:01:33.342Z,5.57
2023-02-04T02:02:33.439Z,5.56
2023-02-04T02:03:33.310Z,5.53
2023-02-04T02:04:33.299Z,5.51
2023-02-04T02:05:33.307Z,5.50
2023-02-04T02:06:33.281Z,5.47
2023-02-04T02:07:33.271Z,5.47
2023-02-04T02:08:33.267Z,5.46
2023-02-04T02:09:33.256Z,5.46
2023-02-04T02:10:33.517Z,5.43
2023-02-04T02:11:33.226Z,5.44
2023-02-04T02:12:33.212Z,5.41
2023-02-04T02:13:33.234Z,5.43
2023-02-04T02:14:33.188Z,5.41
2023-02-04T02:15:33.183Z,5.38
2023-02-04T02:16:33.209Z,5.36
2023-02-04T02:17:33.174Z,5.33
2023-02-04T02:18:33.158Z,5.30
2023-02-04T02:19:33.174Z,5.29
2023-02-04T02:20:33.397Z,5.29
2023-02-04T02:21:33.122Z,5.30
2023-02-04T02:22:33.102Z,5.29
2023-02-04T02:23:33.111Z,5.28
2023-02-04T02:24:33.087Z,5.28
2023-02-04T02:25:33.100Z,5.25
2023-02-04T02:26:33.070Z,5.25
2023-02-04T02:27:33.068Z,5.25
2023-02-04T02:28:33.047Z,5.23
2023-02-04T02:29:33.039Z,5.26
2023-02-04T02:30:33.551Z,5.25
2023-02-04T02:31:33.184Z,5.23
2023-02-04T02:32:33.005Z,5.23
2023-02-04T02:33:33.000Z,5.23
2023-02-04T02:34:32.981Z,5.21
2023-02-04T02:35:32.981Z,5.21
2023-02-04T02:36:32.989Z,5.21
2023-02-04T02:37:32.967Z,5.20
2023-02-04T02:38:32.943Z,5.20
2023-02-04T02:39:32.939Z,5.21
2023-02-04T02:40:33.252Z,5.20
2023-02-04T02:41:32.914Z,5.17
2023-02-04T02:42:32.912Z,5.18
2023-02-04T02:43:32.907Z,5.17
2023-02-04T02:44:32.881Z,5.17
2023-02-04T02:45:32.873Z,5.15
2023-02-04T02:46:32.860Z,5.17
2023-02-04T02:47:33.259Z,5.14
2023-02-04T02:48:32.848Z,5.14
2023-02-04T02:49:32.838Z,5.15
2023-02-04T02:50:33.251Z,5.14
2023-02-04T02:51:32.823Z,5.15
2023-02-04T02:52:32.802Z,5.15
2023-02-04T02:53:32.826Z,5.15
2023-02-04T02:54:32.779Z,5.15
2023-02-04T02:55:32.785Z,5.12
2023-02-04T02:56:32.762Z,5.14
2023-02-04T02:57:32.758Z,5.11
2023-02-04T02:58:32.749Z,5.10
2023-02-04T02:59:32.767Z,5.10
2023-02-04T03:00:33.116Z,5.07
2023-02-04T03:01:32.795Z,5.05
2023-02-04T03:02:32.721Z,5.05
2023-02-04T03:03:32.686Z,5.08
2023-02-04T03:04:32.683Z,5.08
2023-02-04T03:05:32.699Z,5.08
2023-02-04T03:06:32.663Z,5.08
2023-02-04T03:07:32.648Z,5.11
2023-02-04T03:08:32.641Z,5.11
2023-02-04T03:09:32.630Z,5.12
2023-02-04T03:10:32.884Z,5.14
2023-02-04T03:11:32.642Z,5.14
2023-02-04T03:12:32.601Z,5.17
2023-02-04T03:13:32.591Z,5.20
2023-02-04T03:14:32.577Z,5.20
2023-02-04T03:15:32.586Z,5.20
2023-02-04T03:16:32.558Z,5.21
2023-02-04T03:17:32.568Z,5.20
2023-02-04T03:18:32.536Z,5.20
2023-02-04T03:19:32.530Z,5.21
2023-02-04T03:20:32.882Z,5.18
2023-02-04T03:21:32.503Z,5.18
2023-02-04T03:22:32.498Z,5.20
2023-02-04T03:23:32.499Z,5.15
2023-02-04T03:24:32.486Z,5.18
2023-02-04T03:25:32.467Z,5.17
2023-02-04T03:26:32.462Z,5.14
2023-02-04T03:27:32.440Z,5.17
2023-02-04T03:28:32.446Z,5.15
2023-02-04T03:29:32.439Z,5.14
2023-02-04T03:30:32.797Z,5.12
2023-02-04T03:31:32.572Z,5.11
2023-02-04T03:32:32.414Z,5.11
2023-02-04T03:33:32.396Z,5.10
2023-02-04T03:34:32.374Z,5.10
2023-02-04T03:35:32.378Z,5.11
2023-02-04T03:36:32.355Z,5.07
2023-02-04T03:37:32.363Z,5.05
2023-02-04T03:38:32.335Z,5.05
2023-02-04T03:39:32.327Z,5.04
2023-02-04T03:40:32.689Z,5.02
2023-02-04T03:41:32.300Z,4.97
2023-02-04T03:42:32.325Z,4.97
2023-02-04T03:43:34.026Z,4.93
2023-02-04T03:44:32.284Z,4.90
2023-02-04T03:45:40.561Z,4.89
2023-02-04T03:46:32.312Z,4.89
2023-02-04T03:47:32.240Z,4.89
2023-02-04T03:48:32.272Z,4.86
2023-02-04T03:49:32.226Z,4.80
2023-02-04T03:50:32.598Z,4.78
2023-02-04T03:51:32.215Z,4.77
2023-02-04T03:52:32.190Z,4.74
2023-02-04T03:53:32.178Z,4.74
2023-02-04T03:54:32.211Z,4.74
2023-02-04T03:55:32.157Z,4.73
2023-02-04T03:56:32.160Z,4.71
2023-02-04T03:57:32.138Z,4.71
2023-02-04T03:58:32.132Z,4.70
2023-02-04T03:59:32.117Z,4.67
2023-02-04T04:00:32.568Z,4.66
2023-02-04T04:01:32.136Z,4.66
2023-02-04T04:02:32.209Z,4.67
2023-02-04T04:03:32.077Z,4.67
2023-02-04T04:04:32.076Z,4.66
2023-02-04T04:05:32.095Z,4.63
2023-02-04T04:06:32.054Z,4.62
2023-02-04T04:07:32.041Z,4.60
2023-02-04T04:08:32.034Z,4.62
2023-02-04T04:09:32.017Z,4.58
2023-02-04T04:10:32.347Z,4.59
2023-02-04T04:11:32.041Z,4.59
2023-02-04T04:12:31.994Z,4.56
2023-02-04T04:13:31.975Z,4.58
2023-02-04T04:14:31.966Z,4.58
2023-02-04T04:15:31.985Z,4.56
2023-02-04T04:16:31.951Z,4.58
2023-02-04T04:17:31.964Z,4.56
2023-02-04T04:18:31.941Z,4.53
2023-02-04T04:19:31.919Z,4.53
2023-02-04T04:20:32.261Z,4.52
2023-02-04T04:21:31.899Z,4.55
2023-02-04T04:22:31.891Z,4.53
2023-02-04T04:23:31.901Z,4.53
2023-02-04T04:24:31.882Z,4.56
2023-02-04T04:25:31.849Z,4.59
2023-02-04T04:26:31.844Z,4.59
2023-02-04T04:27:31.832Z,4.56
2023-02-04T04:28:31.830Z,4.58
2023-02-04T04:29:31.857Z,4.59
2023-02-04T04:30:32.093Z,4.59
2023-02-04T04:31:31.957Z,4.59
2023-02-04T04:32:31.801Z,4.59
2023-02-04T04:33:31.780Z,4.59
2023-02-04T04:34:31.760Z,4.59
2023-02-04T04:35:31.776Z,4.56
2023-02-04T04:36:31.739Z,4.56
2023-02-04T04:37:31.725Z,4.56
2023-02-04T04:38:31.719Z,4.58
2023-02-04T04:39:31.704Z,4.56
2023-02-04T04:40:32.125Z,4.55
2023-02-04T04:41:31.712Z,4.53
2023-02-04T04:42:31.689Z,4.52
2023-02-04T04:43:31.663Z,4.52
2023-02-04T04:44:31.654Z,4.50
2023-02-04T04:45:31.648Z,4.50
2023-02-04T04:46:31.806Z,4.48
2023-02-04T04:47:31.642Z,4.48
2023-02-04T04:48:31.615Z,4.49
2023-02-04T04:49:31.620Z,4.49
2023-02-04T04:50:31.972Z,4.50
2023-02-04T04:51:31.611Z,4.52
2023-02-04T04:52:31.568Z,4.53
2023-02-04T04:53:31.557Z,4.53
2023-02-04T04:54:31.549Z,4.55
2023-02-04T04:55:31.566Z,4.58
2023-02-04T04:56:31.546Z,4.60
2023-02-04T04:57:31.524Z,4.62
2023-02-04T04:58:31.508Z,4.67
2023-02-04T04:59:31.506Z,4.67
2023-02-04T05:00:32.029Z,4.68
2023-02-04T05:01:31.514Z,4.68
2023-02-04T05:02:31.474Z,4.68
2023-02-04T05:03:31.459Z,4.68
2023-02-04T05:04:31.499Z,4.71
2023-02-04T05:05:31.440Z,4.71
2023-02-04T05:06:31.436Z,4.71
2023-02-04T05:07:31.447Z,4.74
2023-02-04T05:08:31.423Z,4.77
2023-02-04T05:09:31.409Z,4.78
2023-02-04T05:10:31.706Z,4.82
2023-02-04T05:11:31.389Z,4.84
2023-02-04T05:12:31.401Z,4.84
2023-02-04T05:13:31.378Z,4.82
2023-02-04T05:14:31.353Z,4.84
2023-02-04T05:15:31.340Z,4.82
2023-02-04T05:16:31.397Z,4.75
2023-02-04T05:17:31.317Z,4.74
2023-02-04T05:18:31.354Z,4.73
2023-02-04T05:19:31.313Z,4.75
2023-02-04T05:20:31.647Z,4.74
2023-02-04T05:21:31.277Z,4.73
2023-02-04T05:22:31.270Z,4.73
2023-02-04T05:23:31.271Z,4.74
2023-02-04T05:24:31.279Z,4.74
2023-02-04T05:25:31.239Z,4.73
2023-02-04T05:26:31.516Z,4.74
2023-02-04T05:27:31.214Z,4.73
2023-02-04T05:28:31.238Z,4.73
2023-02-04T05:29:31.199Z,4.70
2023-02-04T05:30:31.692Z,4.62
2023-02-04T05:31:31.209Z,4.59
2023-02-04T05:32:31.167Z,4.58
2023-02-04T05:33:31.161Z,4.56
2023-02-04T05:34:31.145Z,4.56
2023-02-04T05:35:31.639Z,4.55
2023-02-04T05:36:31.132Z,4.58
2023-02-04T05:37:31.111Z,4.52
2023-02-04T05:38:31.108Z,4.50
2023-02-04T05:39:31.089Z,4.49
2023-02-04T05:40:31.468Z,4.48
2023-02-04T05:41:31.116Z,4.44
2023-02-04T05:42:31.093Z,4.42
2023-02-04T05:43:31.048Z,4.41
2023-02-04T05:44:31.049Z,4.38
2023-02-04T05:45:31.052Z,4.38
2023-02-04T05:46:31.019Z,4.35
2023-02-04T05:47:31.042Z,4.32
2023-02-04T05:48:31.005Z,4.32
2023-02-04T05:49:30.988Z,4.26
2023-02-04T05:50:31.402Z,4.22
2023-02-04T05:51:30.967Z,4.17
2023-02-04T05:52:30.960Z,4.14
2023-02-04T05:53:30.964Z,4.14
2023-02-04T05:54:30.952Z,4.14
2023-02-04T05:55:30.925Z,4.16
2023-02-04T05:56:30.923Z,4.16
2023-02-04T05:57:30.905Z,4.13
2023-02-04T05:58:30.929Z,4.10
2023-02-04T05:59:30.890Z,4.08
2023-02-04T06:00:31.129Z,4.06
2023-02-04T06:01:30.860Z,4.06
2023-02-04T06:02:30.866Z,4.08
2023-02-04T06:03:31.007Z,4.06
2023-02-04T06:04:30.895Z,4.06
2023-02-04T06:05:30.835Z,4.06
2023-02-04T06:06:30.818Z,4.05
2023-02-04T06:07:30.806Z,4.05
2023-02-04T06:08:30.804Z,4.04
2023-02-04T06:09:30.781Z,4.02
2023-02-04T06:10:31.335Z,4.04
2023-02-04T06:11:30.775Z,4.01
2023-02-04T06:12:30.761Z,4.01
2023-02-04T06:13:30.741Z,4.01
2023-02-04T06:14:30.736Z,3.98
2023-02-04T06:15:30.723Z,3.96
2023-02-04T06:16:30.871Z,3.95
2023-02-04T06:17:30.707Z,3.94
2023-02-04T06:18:30.704Z,3.92
2023-02-04T06:19:30.696Z,3.91
2023-02-04T06:20:31.118Z,3.88
2023-02-04T06:21:30.668Z,3.88
2023-02-04T06:22:30.700Z,3.84
2023-02-04T06:23:30.638Z,3.81
2023-02-04T06:24:30.642Z,3.80
2023-02-04T06:25:30.628Z,3.80
2023-02-04T06:26:30.613Z,3.78
2023-02-04T06:27:30.596Z,3.77
2023-02-04T06:28:30.609Z,3.77
2023-02-04T06:29:30.581Z,3.78
2023-02-04T06:30:31.043Z,3.78
2023-02-04T06:31:30.739Z,3.78
2023-02-04T06:32:30.551Z,3.77
2023-02-04T06:33:30.538Z,3.80
2023-02-04T06:34:30.564Z,3.76
2023-02-04T06:35:30.523Z,3.76
2023-02-04T06:36:30.508Z,3.76
2023-02-04T06:37:30.498Z,3.73
2023-02-04T06:38:30.494Z,3.68
2023-02-04T06:39:30.483Z,3.66
2023-02-04T06:40:30.847Z,3.70
2023-02-04T06:41:30.462Z,3.70
2023-02-04T06:42:30.472Z,3.70
2023-02-04T06:43:30.433Z,3.74
2023-02-04T06:44:30.430Z,3.77
2023-02-04T06:45:30.417Z,3.81
2023-02-04T06:46:30.550Z,3.81
2023-02-04T06:47:30.395Z,3.86
2023-02-04T06:48:31.237Z,3.84
2023-02-04T06:49:30.374Z,3.84
2023-02-04T06:50:30.775Z,3.84
2023-02-04T06:51:30.360Z,3.87
2023-02-04T06:52:30.397Z,3.86
2023-02-04T06:53:30.331Z,3.86
2023-02-04T06:54:30.328Z,3.86
2023-02-04T06:55:30.312Z,3.88
2023-02-04T06:56:30.324Z,3.92
2023-02-04T06:57:30.294Z,3.92
2023-02-04T06:58:30.307Z,3.92
2023-02-04T06:59:30.270Z,3.92
2023-02-04T07:00:30.684Z,3.92
2023-02-04T07:01:30.308Z,3.92
2023-02-04T07:02:30.302Z,3.92
2023-02-04T07:03:30.247Z,3.86
2023-02-04T07:04:30.221Z,3.86
2023-02-04T07:05:30.211Z,3.80
2023-02-04T07:06:30.204Z,3.76
2023-02-04T07:07:30.192Z,3.78
2023-02-04T07:08:30.191Z,3.77
2023-02-04T07:09:30.214Z,3.77
2023-02-04T07:10:30.413Z,3.77
2023-02-04T07:11:30.154Z,3.76
2023-02-04T07:12:30.169Z,3.74
2023-02-04T07:13:30.130Z,3.73
2023-02-04T07:14:30.132Z,3.68
2023-02-04T07:15:30.207Z,3.66
2023-02-04T07:16:30.110Z,3.65
2023-02-04T07:17:30.097Z,3.62
2023-02-04T07:18:30.091Z,3.60
2023-02-04T07:19:30.072Z,3.56
2023-02-04T07:20:30.669Z,3.56
2023-02-04T07:21:30.074Z,3.51
2023-02-04T07:22:30.054Z,3.53
2023-02-04T07:23:30.037Z,3.51
2023-02-04T07:24:30.038Z,3.51
2023-02-04T07:25:30.034Z,3.51
2023-02-04T07:26:30.045Z,3.53
2023-02-04T07:27:30.016Z,3.50
2023-02-04T07:28:29.982Z,3.50
2023-02-04T07:29:29.964Z,3.50
2023-02-04T07:30:30.364Z,3.50
2023-02-04T07:31:30.067Z,3.50
2023-02-04T07:32:30.169Z,3.51
2023-02-04T07:33:29.967Z,3.53
2023-02-04T07:34:29.955Z,3.51
2023-02-04T07:35:29.941Z,3.50
2023-02-04T07:36:30.017Z,3.50
2023-02-04T07:37:29.894Z,3.51
2023-02-04T07:38:29.915Z,3.53
2023-02-04T07:39:29.914Z,3.53
2023-02-04T07:40:30.134Z,3.58
2023-02-04T07:41:29.852Z,3.56
2023-02-04T07:42:29.861Z,3.53
2023-02-04T07:43:29.832Z,3.51
2023-02-04T07:44:29.840Z,3.56
2023-02-04T07:45:29.802Z,3.55
2023-02-04T07:46:29.807Z,3.56
2023-02-04T07:47:29.777Z,3.56
2023-02-04T07:48:29.764Z,3.55
2023-02-04T07:49:29.757Z,3.58
2023-02-04T07:50:29.937Z,3.58
2023-02-04T07:51:29.776Z,3.59
2023-02-04T07:52:29.721Z,3.62
2023-02-04T07:53:29.721Z,3.65
2023-02-04T07:54:29.705Z,3.68
2023-02-04T07:55:29.694Z,3.69
2023-02-04T07:56:29.697Z,3.69
2023-02-04T07:57:29.671Z,3.69
2023-02-04T07:58:29.659Z,3.66
2023-02-04T07:59:29.651Z,3.69
2023-02-04T08:00:30.054Z,3.68
2023-02-04T08:01:29.707Z,3.68
2023-02-04T08:02:29.684Z,3.62
2023-02-04T08:03:29.608Z,3.59
2023-02-04T08:04:29.596Z,3.60
2023-02-04T08:05:29.590Z,3.62
2023-02-04T08:06:29.565Z,3.66
2023-02-04T08:07:29.578Z,3.65
2023-02-04T08:08:29.550Z,3.63
2023-02-04T08:09:29.558Z,3.62
2023-02-04T08:10:29.895Z,3.63
2023-02-04T08:11:29.520Z,3.65
2023-02-04T08:12:29.523Z,3.66
2023-02-04T08:13:29.512Z,3.68
2023-02-04T08:14:29.489Z,3.68
2023-02-04T08:15:29.477Z,3.70
2023-02-04T08:16:29.465Z,3.74
2023-02-04T08:17:29.466Z,3.77
2023-02-04T08:18:29.484Z,3.81
2023-02-04T08:19:29.454Z,3.83
2023-02-04T08:20:29.778Z,3.80
2023-02-04T08:21:29.429Z,3.83
2023-02-04T08:22:29.428Z,3.80
2023-02-04T08:23:29.449Z,3.83
2023-02-04T08:24:29.429Z,3.83
2023-02-04T08:25:29.396Z,3.80
2023-02-04T08:26:29.373Z,3.83
2023-02-04T08:27:29.365Z,3.80
2023-02-04T08:28:29.350Z,3.80
2023-02-04T08:29:29.405Z,3.81
2023-02-04T08:30:29.464Z,3.83
2023-02-04T08:31:29.455Z,3.84
2023-02-04T08:32:29.314Z,3.86
2023-02-04T08:33:29.307Z,3.86
2023-02-04T08:34:29.290Z,3.81
2023-02-04T08:35:29.310Z,3.80
2023-02-04T08:36:29.266Z,3.81
2023-02-04T08:37:29.268Z,3.88
2023-02-04T08:38:29.259Z,3.91
2023-02-04T08:39:29.236Z,3.88
2023-02-04T08:40:29.311Z,3.91
2023-02-04T08:41:29.260Z,3.91
2023-02-04T08:42:29.200Z,3.91
2023-02-04T08:43:29.203Z,3.88
2023-02-04T08:44:29.186Z,3.92
2023-02-04T08:45:29.180Z,3.94
2023-02-04T08:46:29.191Z,3.94
2023-02-04T08:47:29.189Z,3.95
2023-02-04T08:48:29.153Z,3.99
2023-02-04T08:49:29.148Z,4.04
2023-02-04T08:50:29.195Z,4.08
2023-02-04T08:51:29.140Z,4.14
2023-02-04T08:52:29.143Z,4.19
2023-02-04T08:53:29.118Z,4.23
2023-02-04T08:54:29.100Z,4.22
2023-02-04T08:55:29.094Z,4.20
2023-02-04T08:56:29.093Z,4.20
2023-02-04T08:57:29.076Z,4.19
2023-02-04T08:58:29.085Z,4.19
2023-02-04T08:59:29.058Z,4.22
2023-02-04T09:00:29.155Z,4.20
2023-02-04T09:01:29.042Z,4.22
2023-02-04T09:02:29.095Z,4.19
2023-02-04T09:03:29.022Z,4.19
2023-02-04T09:04:29.053Z,4.22
2023-02-04T09:05:29.005Z,4.23
2023-02-04T09:06:28.988Z,4.26
2023-02-04T09:07:28.985Z,4.28
2023-02-04T09:08:28.968Z,4.32
2023-02-04T09:09:29.010Z,4.34
2023-02-04T09:10:28.985Z,4.35
2023-02-04T09:11:28.953Z,4.34
2023-02-04T09:12:28.933Z,4.28
2023-02-04T09:13:28.934Z,4.30
2023-02-04T09:14:28.919Z,4.24
2023-02-04T09:15:28.916Z,4.26
2023-02-04T09:16:28.953Z,4.30
2023-02-04T09:17:28.907Z,4.34
2023-02-04T09:18:28.872Z,4.35
2023-02-04T09:19:28.866Z,4.37
2023-02-04T09:20:28.864Z,4.38
2023-02-04T09:21:28.847Z,4.38
2023-02-04T09:22:28.852Z,4.41
2023-02-04T09:23:28.830Z,4.40
2023-02-04T09:24:28.820Z,4.40
2023-02-04T09:25:28.808Z,4.41
2023-02-04T09:26:28.803Z,4.44
2023-02-04T09:27:28.828Z,4.48
2023-02-04T09:28:28.778Z,4.50
2023-02-04T09:29:28.775Z,4.50
2023-02-04T09:30:28.755Z,4.56
2023-02-04T09:31:28.857Z,4.59
2023-02-04T09:32:28.735Z,4.62
2023-02-04T09:33:28.745Z,4.63
2023-02-04T09:34:28.714Z,4.66
2023-02-04T09:35:28.714Z,4.62
2023-02-04T09:36:28.695Z,4.62
2023-02-04T09:37:28.685Z,4.66
2023-02-04T09:38:28.695Z,4.67
2023-02-04T09:39:28.679Z,4.71
2023-02-04T09:40:28.652Z,4.71
2023-02-04T09:41:28.651Z,4.74
2023-02-04T09:42:28.639Z,4.75
2023-02-04T09:43:28.634Z,4.75
2023-02-04T09:44:28.811Z,4.74
2023-02-04T09:45:28.660Z,4.74
2023-02-04T09:46:28.629Z,4.75
2023-02-04T09:47:28.589Z,4.78
2023-02-04T09:48:28.585Z,4.80
2023-02-04T09:49:34.624Z,4.82
2023-02-04T09:50:28.558Z,4.84
2023-02-04T09:51:28.572Z,4.87
2023-02-04T09:52:28.535Z,4.89
2023-02-04T09:53:28.525Z,4.92
2023-02-04T09:54:28.545Z,4.96
2023-02-04T09:55:28.533Z,4.99
2023-02-04T09:56:28.486Z,4.94
2023-02-04T09:57:28.483Z,4.87
2023-02-04T09:58:28.460Z,4.84
2023-02-04T09:59:28.453Z,4.89
2023-02-04T10:00:28.454Z,4.90
2023-02-04T10:01:28.501Z,4.94
2023-02-04T10:02:28.415Z,5.00
2023-02-04T10:03:28.436Z,5.08
2023-02-04T10:04:28.398Z,5.12
2023-02-04T10:05:28.386Z,5.18
2023-02-04T10:06:28.368Z,5.20
2023-02-04T10:07:28.394Z,5.25
2023-02-04T10:08:28.351Z,5.28
2023-02-04T10:09:28.362Z,5.29
2023-02-04T10:10:28.333Z,5.25
2023-02-04T10:11:28.331Z,5.14
2023-02-04T10:12:28.332Z,5.14
2023-02-04T10:13:28.307Z,5.11
2023-02-04T10:14:28.290Z,5.10
2023-02-04T10:15:28.279Z,5.05
2023-02-04T10:16:28.271Z,5.04
2023-02-04T10:17:28.267Z,5.02
2023-02-04T10:18:28.260Z,5.04
2023-02-04T10:19:28.246Z,5.05
2023-02-04T10:20:28.233Z,5.07
2023-02-04T10:21:28.216Z,5.08
2023-02-04T10:22:28.197Z,5.11
2023-02-04T10:23:28.190Z,5.12
2023-02-04T10:24:28.345Z,5.15
2023-02-04T10:25:28.172Z,5.17
2023-02-04T10:26:28.158Z,5.18
2023-02-04T10:27:28.189Z,5.17
2023-02-04T10:28:28.148Z,5.15
2023-02-04T10:29:28.133Z,5.17
2023-02-04T10:30:28.215Z,5.18
2023-02-04T10:31:28.247Z,5.21
2023-02-04T10:32:28.102Z,5.21
2023-02-04T10:33:28.094Z,5.26
2023-02-04T10:34:28.101Z,5.26
2023-02-04T10:35:28.077Z,5.28
2023-02-04T10:36:28.080Z,5.29
2023-02-04T10:37:28.092Z,5.30
2023-02-04T10:38:28.041Z,5.32
2023-02-04T10:39:28.043Z,5.33
2023-02-04T10:40:28.025Z,5.36
2023-02-04T10:41:28.015Z,5.36
2023-02-04T10:42:28.009Z,5.36
2023-02-04T10:43:28.020Z,5.36
2023-02-04T10:44:27.993Z,5.36
2023-02-04T10:45:27.974Z,5.39
2023-02-04T10:46:27.992Z,5.39
2023-02-04T10:47:27.955Z,5.38
2023-02-04T10:48:27.979Z,5.36
2023-02-04T10:49:27.940Z,5.38
2023-02-04T10:50:27.921Z,5.36
2023-02-04T10:51:27.915Z,5.36
2023-02-04T10:52:27.903Z,5.36
2023-02-04T10:53:27.895Z,5.38
2023-02-04T10:54:28.280Z,5.39
2023-02-04T10:55:27.883Z,5.38
2023-02-04T10:56:27.867Z,5.38
2023-02-04T10:57:27.859Z,5.36
2023-02-04T10:58:27.852Z,5.33
2023-02-04T10:59:27.843Z,5.29
2023-02-04T11:00:27.850Z,5.29
2023-02-04T11:01:27.875Z,5.26
2023-02-04T11:02:27.796Z,5.28
2023-02-04T11:03:27.826Z,5.29
2023-02-04T11:04:27.779Z,5.29
2023-02-04T11:05:27.781Z,5.30
2023-02-04T11:06:27.785Z,5.32
2023-02-04T11:07:27.748Z,5.32
2023-02-04T11:08:27.733Z,5.32
2023-02-04T11:09:27.733Z,5.32
2023-02-04T11:10:27.728Z,5.30
2023-02-04T11:11:27.719Z,5.29
2023-02-04T11:12:27.786Z,5.32
2023-02-04T11:13:27.693Z,5.33
2023-02-04T11:14:27.674Z,5.30
2023-02-04T11:15:27.685Z,5.28
2023-02-04T11:16:27.652Z,5.26
2023-02-04T11:17:27.649Z,5.26
2023-02-04T11:18:27.650Z,5.25
2023-02-04T11:19:27.632Z,5.25
2023-02-04T11:20:27.612Z,5.25
2023-02-04T11:21:27.650Z,5.28
2023-02-04T11:22:27.591Z,5.30
2023-02-04T11:23:27.654Z,5.32
2023-02-04T11:24:27.576Z,5.32
2023-02-04T11:25:27.570Z,5.35
2023-02-04T11:26:27.552Z,5.36
2023-02-04T11:27:27.550Z,5.36
2023-02-04T11:28:27.537Z,5.38
2023-02-04T11:29:27.547Z,5.41
2023-02-04T11:30:27.511Z,5.44
2023-02-04T11:31:27.677Z,5.44
2023-02-04T11:32:27.501Z,5.46
2023-02-04T11:33:27.487Z,5.46
2023-02-04T11:34:27.497Z,5.47
2023-02-04T11:35:27.478Z,5.48
2023-02-04T11:36:27.446Z,5.48
2023-02-04T11:37:27.455Z,5.50
2023-02-04T11:38:27.427Z,5.48
2023-02-04T11:39:27.424Z,5.48
2023-02-04T11:40:27.461Z,5.50
2023-02-04T11:41:27.409Z,5.46
2023-02-04T11:42:27.392Z,5.46
2023-02-04T11:43:27.393Z,5.46
2023-02-04T11:44:27.373Z,5.39
2023-02-04T11:45:27.361Z,5.39
2023-02-04T11:46:27.446Z,5.38
2023-02-04T11:47:27.351Z,5.36
2023-02-04T11:48:27.334Z,5.36
2023-02-04T11:49:27.312Z,5.35
2023-02-04T11:50:27.305Z,5.35
2023-02-04T11:51:27.295Z,5.33
2023-02-04T11:52:27.309Z,5.36
2023-02-04T11:53:27.267Z,5.38
2023-02-04T11:54:27.270Z,5.36
2023-02-04T11:55:27.246Z,5.36
2023-02-04T11:56:27.267Z,5.35
2023-02-04T11:57:27.238Z,5.36
2023-02-04T11:58:27.464Z,5.39
2023-02-04T11:59:27.222Z,5.39
2023-02-04T12:00:27.205Z,5.41
2023-02-04T12:01:27.193Z,5.43
2023-02-04T12:02:27.256Z,5.46
2023-02-04T12:03:27.194Z,5.47
2023-02-04T12:04:27.199Z,5.48
2023-02-04T12:05:27.147Z,5.51
2023-02-04T12:06:27.145Z,5.54
2023-02-04T12:07:27.128Z,5.57
2023-02-04T12:08:27.127Z,5.61
2023-02-04T12:09:27.120Z,5.59
2023-02-04T12:10:27.128Z,5.59
2023-02-04T12:11:27.106Z,5.56
2023-02-04T12:12:27.084Z,5.54
2023-02-04T12:13:28.266Z,5.57
2023-02-04T12:14:27.061Z,5.62
2023-02-04T12:15:27.047Z,5.59
2023-02-04T12:16:27.086Z,5.57
2023-02-04T12:17:27.023Z,5.59
2023-02-04T12:18:27.023Z,5.57
2023-02-04T12:19:27.767Z,5.59
2023-02-04T12:20:27.003Z,5.57
2023-02-04T12:21:26.983Z,5.57
2023-02-04T12:22:26.976Z,5.59
2023-02-04T12:23:26.962Z,5.59
2023-02-04T12:24:26.960Z,5.59
2023-02-04T12:25:26.961Z,5.57
2023-02-04T12:26:26.950Z,5.53
2023-02-04T12:27:26.922Z,5.53
2023-02-04T12:28:26.917Z,5.48
2023-02-04T12:29:26.898Z,5.48
2023-02-04T12:30:26.972Z,5.48
2023-02-04T12:31:26.993Z,5.48
2023-02-04T12:32:26.872Z,5.53
2023-02-04T12:33:26.863Z,5.53
2023-02-04T12:34:26.884Z,5.53
2023-02-04T12:35:26.838Z,5.56
2023-02-04T12:36:26.862Z,5.54
2023-02-04T12:37:26.825Z,5.59
2023-02-04T12:38:26.820Z,5.56
2023-02-04T12:39:26.821Z,5.57
2023-02-04T12:40:26.815Z,5.57
2023-02-04T12:41:26.806Z,5.59
2023-02-04T12:42:27.104Z,5.61
2023-02-04T12:43:28.349Z,5.61
2023-02-04T12:44:26.776Z,5.64
2023-02-04T12:45:26.755Z,5.64
2023-02-04T12:46:26.788Z,5.65
2023-02-04T12:47:26.758Z,5.66
2023-02-04T12:48:26.826Z,5.69
2023-02-04T12:49:26.704Z,5.69
2023-02-04T12:50:26.704Z,5.71
2023-02-04T12:51:26.677Z,5.73
2023-02-04T12:52:26.667Z,5.73
2023-02-04T12:53:26.647Z,5.73
2023-02-04T12:54:26.667Z,5.75
2023-02-04T12:55:26.630Z,5.76
2023-02-04T12:56:26.635Z,5.79
2023-02-04T12:57:26.609Z,5.76
2023-02-04T12:58:26.611Z,5.80
2023-02-04T12:59:26.594Z,5.80
2023-02-04T13:00:26.853Z,5.80
2023-02-04T13:01:26.575Z,5.80
2023-02-04T13:02:26.560Z,5.80
2023-02-04T13:03:26.554Z,5.79
2023-02-04T13:04:26.538Z,5.76
2023-02-04T13:05:26.573Z,5.79
2023-02-04T13:06:26.555Z,5.80
2023-02-04T13:07:26.514Z,5.82
2023-02-04T13:08:26.505Z,5.84
2023-02-04T13:09:26.494Z,5.83
2023-02-04T13:10:26.497Z,5.86
2023-02-04T13:11:26.461Z,5.86
2023-02-04T13:12:26.501Z,5.86
2023-02-04T13:13:26.447Z,5.83
2023-02-04T13:14:26.435Z,5.83
2023-02-04T13:15:26.432Z,5.83
2023-02-04T13:16:26.501Z,5.83
2023-02-04T13:17:26.403Z,5.83
2023-02-04T13:18:26.441Z,5.83